Temp: 11.0°C   Baro: 992.6mb
  Wind: 4.9mph   Dir: ESE (111°)
  Rain: 1.4mm (1.8mm/hr)
  Solar: 0W/m2  Hum: 78%
 
Bath Spa Weather Station Historical Data
Daily Summary for August 9, 2019 Units:  Both    English   Metric
Daily Weekly Monthly Yearly Custom
  High: Low: Average:
Temperature: 55.7 °F /  13.2 °C 45.5 °F /  7.5 °C 49.6 °F /  9.8 °C
Dew Point: 49.5 °F /  9.7 °C 43.5 °F /  6.4 °C 46.4 °F /  8 °C
Humidity: 94% 76.3% 89%
Wind Speed: 10mph /  16.1km/h - 3.6mph /  5.8km/h
Wind Gust: 20mph /  32.2km/h - -
Wind- - West
Pressure: 29.76 in /  1007.7 hPa 29.65 in /  1003.9 hPa -
Precipitation: 0.43 in /  10.92 mm    
Historical Graphs
 
 
Tabular Data for August 9, 2019
Time Temperature Dew Point Pressure Wind Wind Speed Wind Gust Humidity Rainfall Rate (Hourly) solar
00:04 49.7 °F /  9.8 °C 45.1 °F /  7.3 °C 29.71in /  1006hPa West 2.2mph /  3.5km/h 8mph /  12.9km/h 84.1% 0.00in /  0mm 0 W/m2
00:09 49.6 °F /  9.8 °C 45.3 °F /  7.4 °C 29.71in /  1006hPa WSW 3.6mph /  5.8km/h 8mph /  12.9km/h 85% 0.00in /  0mm 0 W/m2
00:14 49.6 °F /  9.8 °C 45.3 °F /  7.4 °C 29.71in /  1006hPa West 3.2mph /  5.1km/h 8mph /  12.9km/h 85% 0.00in /  0mm 0 W/m2
00:19 49.6 °F /  9.8 °C 45.3 °F /  7.4 °C 29.70in /  1005.6hPa WSW 1.9mph /  3.1km/h 7mph /  11.3km/h 85% 0.00in /  0mm 0 W/m2
00:24 49.7 °F /  9.8 °C 45.4 °F /  7.4 °C 29.70in /  1005.6hPa SW 6.3mph /  10.1km/h 12mph /  19.3km/h 85% 0.00in /  0mm 0 W/m2
00:29 49.9 °F /  9.9 °C 45.6 °F /  7.6 °C 29.71in /  1006hPa WSW 7.3mph /  11.7km/h 13mph /  20.9km/h 85% 0.00in /  0mm 0 W/m2
00:34 50 °F /  10 °C 45.7 °F /  7.6 °C 29.71in /  1006hPa WSW 7.3mph /  11.7km/h 14mph /  22.5km/h 85% 0.00in /  0mm 0 W/m2
00:39 50 °F /  10 °C 45.7 °F /  7.6 °C 29.70in /  1005.6hPa SW 5.4mph /  8.7km/h 14mph /  22.5km/h 85% 0.00in /  0mm 0 W/m2
00:44 50 °F /  10 °C 45.7 °F /  7.6 °C 29.70in /  1005.6hPa SW 6.7mph /  10.8km/h 11mph /  17.7km/h 85% 0.00in /  0mm 0 W/m2
00:49 50.1 °F /  10.1 °C 45.8 °F /  7.7 °C 29.70in /  1005.6hPa WSW 5.8mph /  9.3km/h 14mph /  22.5km/h 85% 0.00in /  0mm 0 W/m2
00:54 50.3 °F /  10.2 °C 45.9 °F /  7.7 °C 29.70in /  1005.6hPa WSW 7.7mph /  12.4km/h 14mph /  22.5km/h 85% 0.00in /  0mm 0 W/m2
00:59 50.4 °F /  10.2 °C 46 °F /  7.8 °C 29.70in /  1005.6hPa WSW 5.6mph /  9km/h 14mph /  22.5km/h 85% 0.00in /  0mm 0 W/m2
01:04 50.5 °F /  10.3 °C 46.2 °F /  7.9 °C 29.70in /  1005.6hPa WSW 6.4mph /  10.3km/h 14mph /  22.5km/h 85% 0.00in /  0mm 0 W/m2
01:09 50.5 °F /  10.3 °C 46.2 °F /  7.9 °C 29.70in /  1005.6hPa WSW 6.9mph /  11.1km/h 14mph /  22.5km/h 85% 0.00in /  0mm 0 W/m2
01:14 50.5 °F /  10.3 °C 46.2 °F /  7.9 °C 29.70in /  1005.6hPa WSW 7mph /  11.3km/h 18mph /  29km/h 85% 0.00in /  0mm 0 W/m2
01:19 50.5 °F /  10.3 °C 46.2 °F /  7.9 °C 29.70in /  1005.6hPa WSW 5.2mph /  8.4km/h 10mph /  16.1km/h 85% 0.00in /  0mm 0 W/m2
01:24 50.4 °F /  10.2 °C 46 °F /  7.8 °C 29.70in /  1005.6hPa SW 3.9mph /  6.3km/h 12mph /  19.3km/h 85% 0.00in /  0mm 0 W/m2
01:29 50.3 °F /  10.2 °C 45.9 °F /  7.7 °C 29.70in /  1005.6hPa WSW 4.5mph /  7.2km/h 10mph /  16.1km/h 85% 0.00in /  0mm 0 W/m2
01:34 50.1 °F /  10.1 °C 45.8 °F /  7.7 °C 29.70in /  1005.6hPa WSW 3.3mph /  5.3km/h 9mph /  14.5km/h 85% 0.00in /  0mm 0 W/m2
01:39 50 °F /  10 °C 45.7 °F /  7.6 °C 29.70in /  1005.6hPa WSW 5mph /  8km/h 10mph /  16.1km/h 85% 0.00in /  0mm 0 W/m2
01:44 50 °F /  10 °C 45.7 °F /  7.6 °C 29.70in /  1005.6hPa West 3.5mph /  5.6km/h 10mph /  16.1km/h 85% 0.00in /  0mm 0 W/m2
01:49 49.9 °F /  9.9 °C 45.6 °F /  7.6 °C 29.70in /  1005.6hPa West 3.9mph /  6.3km/h 10mph /  16.1km/h 85% 0.00in /  0mm 0 W/m2
01:54 49.8 °F /  9.9 °C 45.5 °F /  7.5 °C 29.70in /  1005.6hPa WSW 2.6mph /  4.2km/h 8mph /  12.9km/h 85% 0.00in /  0mm 0 W/m2
01:59 49.8 °F /  9.9 °C 45.5 °F /  7.5 °C 29.70in /  1005.6hPa WSW 2.4mph /  3.9km/h 8mph /  12.9km/h 85% 0.00in /  0mm 0 W/m2
02:04 49.8 °F /  9.9 °C 45.5 °F /  7.5 °C 29.70in /  1005.6hPa WSW 4.3mph /  6.9km/h 8mph /  12.9km/h 85% 0.00in /  0mm 0 W/m2
02:09 49.8 °F /  9.9 °C 45.6 °F /  7.6 °C 29.70in /  1005.6hPa WSW 3.7mph /  6km/h 8mph /  12.9km/h 85.1% 0.00in /  0mm 0 W/m2
02:14 49.8 °F /  9.9 °C 45.8 °F /  7.7 °C 29.70in /  1005.6hPa WSW 4mph /  6.4km/h 9mph /  14.5km/h 85.7% 0.00in /  0mm 0 W/m2
02:19 50 °F /  10 °C 46 °F /  7.8 °C 29.69in /  1005.3hPa WSW 4.2mph /  6.8km/h 9mph /  14.5km/h 86% 0.00in /  0mm 0 W/m2
02:24 50 °F /  10 °C 46 °F /  7.8 °C 29.69in /  1005.3hPa WSW 3.4mph /  5.5km/h 9mph /  14.5km/h 86% 0.00in /  0mm 0 W/m2
02:29 50 °F /  10 °C 46 °F /  7.8 °C 29.70in /  1005.6hPa West 4.5mph /  7.2km/h 9mph /  14.5km/h 86% 0.00in /  0mm 0 W/m2
02:34 50 °F /  10 °C 45.9 °F /  7.7 °C 29.70in /  1005.6hPa WSW 7.4mph /  11.9km/h 15mph /  24.1km/h 85.8% 0.00in /  0mm 0 W/m2
02:39 50.1 °F /  10.1 °C 45.8 °F /  7.7 °C 29.70in /  1005.6hPa West 5.5mph /  8.9km/h 15mph /  24.1km/h 85.3% 0.00in /  0mm 0 W/m2
02:44 49.9 °F /  9.9 °C 46 °F /  7.8 °C 29.69in /  1005.3hPa West 3.7mph /  6km/h 8mph /  12.9km/h 86% 0.00in /  0mm 0 W/m2
02:49 49.7 °F /  9.8 °C 45.8 °F /  7.7 °C 29.69in /  1005.3hPa West 1.5mph /  2.4km/h 5mph /  8km/h 86% 0.00in /  0mm 0 W/m2
02:54 49.6 °F /  9.8 °C 45.8 °F /  7.7 °C 29.69in /  1005.3hPa West 1.4mph /  2.3km/h 5mph /  8km/h 86.8% 0.00in /  0mm 0 W/m2
02:59 49.5 °F /  9.7 °C 45.8 °F /  7.7 °C 29.68in /  1005hPa WSW 0.4mph /  0.6km/h 5mph /  8km/h 87% 0.00in /  0mm 0 W/m2
03:04 49.5 °F /  9.7 °C 45.7 °F /  7.6 °C 29.68in /  1005hPa West 1.5mph /  2.4km/h 5mph /  8km/h 87% 0.00in /  0mm 0 W/m2
03:09 49.5 °F /  9.7 °C 45.7 °F /  7.6 °C 29.68in /  1005hPa West 0.4mph /  0.6km/h 2mph /  3.2km/h 87% 0.00in /  0mm 0 W/m2
03:14 49.5 °F /  9.7 °C 45.7 °F /  7.6 °C 29.68in /  1005hPa West 0.4mph /  0.6km/h 3mph /  4.8km/h 87% 0.00in /  0mm 0 W/m2
03:19 49.5 °F /  9.7 °C 45.9 °F /  7.7 °C 29.68in /  1005hPa West 2mph /  3.2km/h 5mph /  8km/h 87.6% 0.00in /  0mm 0 W/m2
03:24 49.4 °F /  9.7 °C 46 °F /  7.8 °C 29.68in /  1005hPa WSW 0.8mph /  1.3km/h 5mph /  8km/h 88% 0.00in /  0mm 0 W/m2
03:29 49.4 °F /  9.7 °C 46 °F /  7.8 °C 29.68in /  1005hPa West 3.9mph /  6.3km/h 9mph /  14.5km/h 88% 0.00in /  0mm 0 W/m2
03:34 49.5 °F /  9.7 °C 46 °F /  7.8 °C 29.68in /  1005hPa West 6.1mph /  9.8km/h 11mph /  17.7km/h 88% 0.00in /  0mm 0 W/m2
03:39 49.5 °F /  9.7 °C 46 °F /  7.8 °C 29.68in /  1005hPa West 2.3mph /  3.7km/h 11mph /  17.7km/h 88% 0.00in /  0mm 0 W/m2
03:44 49.5 °F /  9.7 °C 46.1 °F /  7.8 °C 29.68in /  1005hPa WSW 4.9mph /  7.9km/h 10mph /  16.1km/h 88% 0.00in /  0mm 0 W/m2
03:49 49.6 °F /  9.8 °C 46.2 °F /  7.9 °C 29.67in /  1004.6hPa WSW 4.7mph /  7.6km/h 10mph /  16.1km/h 88% 0.01in /  0.25mm 0 W/m2
03:54 49.5 °F /  9.7 °C 46.1 °F /  7.8 °C 29.67in /  1004.6hPa WSW 3.2mph /  5.1km/h 10mph /  16.1km/h 88% 0.01in /  0.25mm 0 W/m2
03:59 49.5 °F /  9.7 °C 46 °F /  7.8 °C 29.67in /  1004.6hPa SW 4.3mph /  6.9km/h 10mph /  16.1km/h 88% 0.01in /  0.25mm 0 W/m2
04:04 49.5 °F /  9.7 °C 46 °F /  7.8 °C 29.67in /  1004.6hPa WSW 3.4mph /  5.5km/h 8mph /  12.9km/h 88% 0.01in /  0.25mm 0 W/m2
04:09 49.3 °F /  9.6 °C 45.9 °F /  7.7 °C 29.67in /  1004.6hPa WSW 4.5mph /  7.2km/h 11mph /  17.7km/h 88% 0.01in /  0.25mm 0 W/m2
04:14 49.3 °F /  9.6 °C 45.9 °F /  7.7 °C 29.67in /  1004.6hPa WSW 3.4mph /  5.5km/h 10mph /  16.1km/h 88% 0.01in /  0.25mm 0 W/m2
04:19 49.1 °F /  9.5 °C 45.7 °F /  7.6 °C 29.67in /  1004.6hPa West 5mph /  8km/h 10mph /  16.1km/h 88% 0.01in /  0.25mm 0 W/m2
04:24 49.1 °F /  9.5 °C 45.7 °F /  7.6 °C 29.67in /  1004.6hPa West 3.4mph /  5.5km/h 9mph /  14.5km/h 88% 0.01in /  0.25mm 0 W/m2
04:29 49.1 °F /  9.5 °C 46 °F /  7.8 °C 29.67in /  1004.6hPa WSW 1.7mph /  2.7km/h 5mph /  8km/h 89% 0.01in /  0.25mm 0 W/m2
04:34 49.1 °F /  9.5 °C 46 °F /  7.8 °C 29.67in /  1004.6hPa WSW 1.6mph /  2.6km/h 5mph /  8km/h 89% 0.01in /  0.25mm 0 W/m2
04:39 49.1 °F /  9.5 °C 46 °F /  7.8 °C 29.67in /  1004.6hPa West 3.3mph /  5.3km/h 7mph /  11.3km/h 89% 0.01in /  0.25mm 0 W/m2
04:44 49.1 °F /  9.5 °C 46 °F /  7.8 °C 29.67in /  1004.6hPa WSW 2.5mph /  4km/h 7mph /  11.3km/h 89% 0.01in /  0.25mm 0 W/m2
04:49 49.1 °F /  9.5 °C 46 °F /  7.8 °C 29.67in /  1004.6hPa West 3.1mph /  5km/h 7mph /  11.3km/h 89% 0.00in /  0mm 0 W/m2
04:54 49.1 °F /  9.5 °C 46 °F /  7.8 °C 29.67in /  1004.6hPa West 3.2mph /  5.1km/h 7mph /  11.3km/h 89% 0.00in /  0mm 0 W/m2
04:59 49.1 °F /  9.5 °C 46 °F /  7.8 °C 29.67in /  1004.6hPa WSW 3.1mph /  5km/h 8mph /  12.9km/h 89% 0.00in /  0mm 0 W/m2
05:04 49.1 °F /  9.5 °C 46 °F /  7.8 °C 29.67in /  1004.6hPa WSW 3.1mph /  5km/h 8mph /  12.9km/h 89% 0.00in /  0mm 0 W/m2
05:09 49.1 °F /  9.5 °C 46 °F /  7.8 °C 29.67in /  1004.6hPa WSW 3.2mph /  5.1km/h 8mph /  12.9km/h 89% 0.00in /  0mm 0 W/m2
05:14 49.1 °F /  9.5 °C 46 °F /  7.8 °C 29.66in /  1004.3hPa WSW 2.1mph /  3.4km/h 8mph /  12.9km/h 89% 0.00in /  0mm 0 W/m2
05:19 49 °F /  9.4 °C 46 °F /  7.8 °C 29.66in /  1004.3hPa WSW 3.2mph /  5.1km/h 8mph /  12.9km/h 89% 0.00in /  0mm 0 W/m2
05:24 49.1 °F /  9.5 °C 46 °F /  7.8 °C 29.66in /  1004.3hPa WSW 4.7mph /  7.6km/h 10mph /  16.1km/h 89% 0.00in /  0mm 0 W/m2
05:29 49.1 °F /  9.5 °C 46 °F /  7.8 °C 29.66in /  1004.3hPa WSW 4.1mph /  6.6km/h 10mph /  16.1km/h 89% 0.00in /  0mm 0 W/m2
05:34 49.1 °F /  9.5 °C 46 °F /  7.8 °C 29.66in /  1004.3hPa WSW 3.9mph /  6.3km/h 8mph /  12.9km/h 89% 0.00in /  0mm 0 W/m2
05:39 49.1 °F /  9.5 °C 46 °F /  7.8 °C 29.66in /  1004.3hPa WSW 3.4mph /  5.5km/h 8mph /  12.9km/h 89% 0.00in /  0mm 0 W/m2
05:44 49.1 °F /  9.5 °C 46 °F /  7.8 °C 29.66in /  1004.3hPa WSW 4.3mph /  6.9km/h 8mph /  12.9km/h 89% 0.00in /  0mm 0 W/m2
05:49 49.1 °F /  9.5 °C 46 °F /  7.8 °C 29.66in /  1004.3hPa SW 4.8mph /  7.7km/h 9mph /  14.5km/h 89% 0.00in /  0mm 0 W/m2
05:54 49.1 °F /  9.5 °C 46 °F /  7.8 °C 29.66in /  1004.3hPa SW 5.9mph /  9.5km/h 11mph /  17.7km/h 89% 0.00in /  0mm 0 W/m2
05:59 49.1 °F /  9.5 °C 46 °F /  7.8 °C 29.65in /  1003.9hPa SW 5mph /  8km/h 11mph /  17.7km/h 89% 0.00in /  0mm 0 W/m2
06:04 49.1 °F /  9.5 °C 46 °F /  7.8 °C 29.65in /  1003.9hPa SW 4.3mph /  6.9km/h 10mph /  16.1km/h 89% 0.00in /  0mm 0 W/m2
06:09 49.1 °F /  9.5 °C 46 °F /  7.8 °C 29.65in /  1003.9hPa SW 3.7mph /  6km/h 11mph /  17.7km/h 89% 0.00in /  0mm 0 W/m2
06:14 49 °F /  9.4 °C 45.9 °F /  7.7 °C 29.65in /  1003.9hPa SW 4mph /  6.4km/h 8mph /  12.9km/h 89% 0.00in /  0mm 0 W/m2
06:19 48.9 °F /  9.4 °C 45.9 °F /  7.7 °C 29.65in /  1003.9hPa SW 3.6mph /  5.8km/h 7mph /  11.3km/h 89% 0.00in /  0mm 0 W/m2
06:24 48.9 °F /  9.4 °C 45.9 °F /  7.7 °C 29.66in /  1004.3hPa SW 4mph /  6.4km/h 8mph /  12.9km/h 89% 0.00in /  0mm 0 W/m2
06:29 48.9 °F /  9.4 °C 45.9 °F /  7.7 °C 29.66in /  1004.3hPa SW 3.5mph /  5.6km/h 8mph /  12.9km/h 89% 0.00in /  0mm 0 W/m2
06:34 49 °F /  9.4 °C 46 °F /  7.8 °C 29.66in /  1004.3hPa WSW 3.4mph /  5.5km/h 8mph /  12.9km/h 89% 0.00in /  0mm 0 W/m2
06:39 48.9 °F /  9.4 °C 45.9 °F /  7.7 °C 29.66in /  1004.3hPa West 2.9mph /  4.7km/h 8mph /  12.9km/h 89% 0.00in /  0mm 0 W/m2
06:44 48.9 °F /  9.4 °C 45.9 °F /  7.7 °C 29.66in /  1004.3hPa West 4.5mph /  7.2km/h 9mph /  14.5km/h 89% 0.00in /  0mm 0 W/m2
06:49 48.9 °F /  9.4 °C 45.9 °F /  7.7 °C 29.66in /  1004.3hPa WSW 5.2mph /  8.4km/h 10mph /  16.1km/h 89% 0.00in /  0mm 0 W/m2
06:54 48.9 °F /  9.4 °C 45.9 °F /  7.7 °C 29.66in /  1004.3hPa West 4.2mph /  6.8km/h 8mph /  12.9km/h 89% 0.00in /  0mm 0 W/m2
06:59 48.9 °F /  9.4 °C 45.9 °F /  7.7 °C 29.66in /  1004.3hPa West 5.1mph /  8.2km/h 9mph /  14.5km/h 89% 0.00in /  0mm 0 W/m2
07:04 48.9 °F /  9.4 °C 45.9 °F /  7.7 °C 29.66in /  1004.3hPa WSW 5mph /  8km/h 10mph /  16.1km/h 89% 0.00in /  0mm 0 W/m2
07:09 48.9 °F /  9.4 °C 45.9 °F /  7.7 °C 29.66in /  1004.3hPa WSW 6.2mph /  10km/h 12mph /  19.3km/h 89% 0.01in /  0.25mm 0 W/m2
07:14 48.9 °F /  9.4 °C 45.9 °F /  7.7 °C 29.66in /  1004.3hPa WSW 3.1mph /  5km/h 10mph /  16.1km/h 89% 0.01in /  0.25mm 0 W/m2
07:19 48.7 °F /  9.3 °C 45.7 °F /  7.6 °C 29.66in /  1004.3hPa WSW 2.7mph /  4.3km/h 6mph /  9.7km/h 89% 0.02in /  0.51mm 0 W/m2
07:24 48.7 °F /  9.3 °C 45.8 °F /  7.7 °C 29.66in /  1004.3hPa WSW 2.4mph /  3.9km/h 7mph /  11.3km/h 90% 0.03in /  0.76mm 0 W/m2
07:29 48.6 °F /  9.2 °C 45.7 °F /  7.6 °C 29.66in /  1004.3hPa WSW 3mph /  4.8km/h 7mph /  11.3km/h 90% 0.04in /  1.02mm 0 W/m2
07:34 48.5 °F /  9.2 °C 45.6 °F /  7.6 °C 29.66in /  1004.3hPa WSW 2.3mph /  3.7km/h 7mph /  11.3km/h 90% 0.04in /  1.02mm 0 W/m2
07:39 48.3 °F /  9.1 °C 45.4 °F /  7.4 °C 29.66in /  1004.3hPa West 2.8mph /  4.5km/h 7mph /  11.3km/h 90% 0.05in /  1.27mm 5 W/m2
07:44 48.2 °F /  9 °C 45.6 °F /  7.6 °C 29.66in /  1004.3hPa West 1.6mph /  2.6km/h 5mph /  8km/h 90.9% 0.05in /  1.27mm 7 W/m2
07:49 48.2 °F /  9 °C 45.7 °F /  7.6 °C 29.67in /  1004.6hPa West 1.3mph /  2.1km/h 5mph /  8km/h 91% 0.05in /  1.27mm 9 W/m2
07:54 48.2 °F /  9 °C 45.7 °F /  7.6 °C 29.67in /  1004.6hPa West 2.4mph /  3.9km/h 5mph /  8km/h 91% 0.05in /  1.27mm 7 W/m2
07:59 48.2 °F /  9 °C 45.7 °F /  7.6 °C 29.67in /  1004.6hPa West 1.6mph /  2.6km/h 5mph /  8km/h 91% 0.06in /  1.52mm 9 W/m2
08:04 48.1 °F /  8.9 °C 45.6 °F /  7.6 °C 29.67in /  1004.6hPa West 0.8mph /  1.3km/h 5mph /  8km/h 91% 0.06in /  1.52mm 14 W/m2
08:09 48.2 °F /  9 °C 45.7 °F /  7.6 °C 29.67in /  1004.6hPa West 1.4mph /  2.3km/h 4mph /  6.4km/h 91.2% 0.06in /  1.52mm 16 W/m2
08:14 48.1 °F /  8.9 °C 45.7 °F /  7.6 °C 29.67in /  1004.6hPa West 1.4mph /  2.3km/h 5mph /  8km/h 91.2% 0.06in /  1.52mm 16 W/m2
08:19 48.1 °F /  8.9 °C 46 °F /  7.8 °C 29.67in /  1004.6hPa West 1.9mph /  3.1km/h 5mph /  8km/h 92% 0.05in /  1.27mm 18 W/m2
08:24 48.1 °F /  8.9 °C 46 °F /  7.8 °C 29.67in /  1004.6hPa West 1.5mph /  2.4km/h 5mph /  8km/h 92% 0.04in /  1.02mm 14 W/m2
08:29 48.1 °F /  8.9 °C 45.9 °F /  7.7 °C 29.67in /  1004.6hPa West 1.8mph /  2.9km/h 4mph /  6.4km/h 92% 0.04in /  1.02mm 7 W/m2
08:34 48 °F /  8.9 °C 45.9 °F /  7.7 °C 29.67in /  1004.6hPa WNW 1.6mph /  2.6km/h 6mph /  9.7km/h 92% 0.05in /  1.27mm 7 W/m2
08:39 48 °F /  8.9 °C 45.9 °F /  7.7 °C 29.67in /  1004.6hPa WSW 1.9mph /  3.1km/h 6mph /  9.7km/h 92% 0.06in /  1.52mm 12 W/m2
08:44 48 °F /  8.9 °C 45.9 °F /  7.7 °C 29.67in /  1004.6hPa West 2.8mph /  4.5km/h 7mph /  11.3km/h 92% 0.06in /  1.52mm 21 W/m2
08:49 48 °F /  8.9 °C 45.9 °F /  7.7 °C 29.67in /  1004.6hPa West 3.4mph /  5.5km/h 7mph /  11.3km/h 92% 0.07in /  1.78mm 32 W/m2
08:54 48 °F /  8.9 °C 45.9 °F /  7.7 °C 29.67in /  1004.6hPa WNW 1.6mph /  2.6km/h 7mph /  11.3km/h 92% 0.07in /  1.78mm 32 W/m2
08:59 47.9 °F /  8.8 °C 45.9 °F /  7.7 °C 29.67in /  1004.6hPa West 1.6mph /  2.6km/h 5mph /  8km/h 92.5% 0.06in /  1.52mm 21 W/m2
09:04 47.8 °F /  8.8 °C 45.9 °F /  7.7 °C 29.67in /  1004.6hPa West 0.5mph /  0.8km/h 4mph /  6.4km/h 93% 0.07in /  1.78mm 35 W/m2
09:09 47.9 °F /  8.8 °C 46 °F /  7.8 °C 29.67in /  1004.6hPa West 1.1mph /  1.8km/h 3mph /  4.8km/h 93% 0.06in /  1.52mm 47 W/m2
09:14 48 °F /  8.9 °C 46 °F /  7.8 °C 29.67in /  1004.6hPa West 2.3mph /  3.7km/h 5mph /  8km/h 93% 0.06in /  1.52mm 81 W/m2
09:19 48 °F /  8.9 °C 46 °F /  7.8 °C 29.67in /  1004.6hPa West 0.7mph /  1.1km/h 5mph /  8km/h 93% 0.06in /  1.52mm 81 W/m2
09:24 48 °F /  8.9 °C 46 °F /  7.8 °C 29.67in /  1004.6hPa West 0.5mph /  0.8km/h 3mph /  4.8km/h 93% 0.06in /  1.52mm 65 W/m2
09:29 48 °F /  8.9 °C 46 °F /  7.8 °C 29.67in /  1004.6hPa West 1mph /  1.6km/h 3mph /  4.8km/h 93% 0.06in /  1.52mm 91 W/m2
09:34 48.2 °F /  9 °C 46.2 °F /  7.9 °C 29.67in /  1004.6hPa Calm   3mph /  4.8km/h 93% 0.05in /  1.27mm 95 W/m2
09:39 48.3 °F /  9.1 °C 46.3 °F /  7.9 °C 29.67in /  1004.6hPa West 0.4mph /  0.6km/h 3mph /  4.8km/h 93% 0.03in /  0.76mm 107 W/m2
09:44 48.5 °F /  9.2 °C 46.5 °F /  8.1 °C 29.68in /  1005hPa WNW 1.6mph /  2.6km/h 6mph /  9.7km/h 93% 0.02in /  0.51mm 132 W/m2
09:49 48.5 °F /  9.2 °C 46.5 °F /  8.1 °C 29.68in /  1005hPa West 2.2mph /  3.5km/h 6mph /  9.7km/h 93% 0.02in /  0.51mm 167 W/m2
09:54 48.6 °F /  9.2 °C 46.6 °F /  8.1 °C 29.68in /  1005hPa West 3mph /  4.8km/h 9mph /  14.5km/h 93% 0.01in /  0.25mm 172 W/m2
09:59 48.6 °F /  9.2 °C 46.6 °F /  8.1 °C 29.68in /  1005hPa West 4.2mph /  6.8km/h 9mph /  14.5km/h 93% 0.01in /  0.25mm 165 W/m2
10:04 48.6 °F /  9.2 °C 46.6 °F /  8.1 °C 29.68in /  1005hPa WSW 3.1mph /  5km/h 9mph /  14.5km/h 92.7% 0.00in /  0mm 156 W/m2
10:09 48.7 °F /  9.3 °C 46.8 °F /  8.2 °C 29.68in /  1005hPa WSW 2.7mph /  4.3km/h 9mph /  14.5km/h 92.7% 0.00in /  0mm 135 W/m2
10:14 48.9 °F /  9.4 °C 46.8 °F /  8.2 °C 29.68in /  1005hPa West 3.9mph /  6.3km/h 8mph /  12.9km/h 92% 0.00in /  0mm 151 W/m2
10:19 48.9 °F /  9.4 °C 46.8 °F /  8.2 °C 29.68in /  1005hPa West 5.8mph /  9.3km/h 11mph /  17.7km/h 92% 0.00in /  0mm 179 W/m2
10:24 49 °F /  9.4 °C 46.9 °F /  8.3 °C 29.68in /  1005hPa West 4.9mph /  7.9km/h 11mph /  17.7km/h 92% 0.00in /  0mm 179 W/m2
10:29 49.2 °F /  9.6 °C 47 °F /  8.3 °C 29.68in /  1005hPa WSW 3.9mph /  6.3km/h 10mph /  16.1km/h 92% 0.00in /  0mm 137 W/m2
10:34 49.3 °F /  9.6 °C 47 °F /  8.3 °C 29.68in /  1005hPa West 5.4mph /  8.7km/h 10mph /  16.1km/h 91.6% 0.00in /  0mm 144 W/m2
10:39 49.4 °F /  9.7 °C 46.9 °F /  8.3 °C 29.69in /  1005.3hPa West 4.9mph /  7.9km/h 9mph /  14.5km/h 91% 0.00in /  0mm 120 W/m2
10:44 49.4 °F /  9.7 °C 46.8 °F /  8.2 °C 29.69in /  1005.3hPa WSW 7.5mph /  12.1km/h 13mph /  20.9km/h 91% 0.01in /  0.25mm 151 W/m2
10:49 49.1 °F /  9.5 °C 46.6 °F /  8.1 °C 29.69in /  1005.3hPa WSW 5.5mph /  8.9km/h 11mph /  17.7km/h 91% 0.01in /  0.25mm 250 W/m2
10:54 49.4 °F /  9.7 °C 46.9 °F /  8.3 °C 29.69in /  1005.3hPa West 4.7mph /  7.6km/h 10mph /  16.1km/h 91% 0.01in /  0.25mm 315 W/m2
10:59 49.6 °F /  9.8 °C 47.1 °F /  8.4 °C 29.69in /  1005.3hPa West 4.2mph /  6.8km/h 10mph /  16.1km/h 91% 0.01in /  0.25mm 211 W/m2
11:04 49.6 °F /  9.8 °C 47.1 °F /  8.4 °C 29.69in /  1005.3hPa West 6.3mph /  10.1km/h 13mph /  20.9km/h 91% 0.01in /  0.25mm 207 W/m2
11:09 49.8 °F /  9.9 °C 47.3 °F /  8.5 °C 29.69in /  1005.3hPa WSW 4.8mph /  7.7km/h 12mph /  19.3km/h 91% 0.02in /  0.51mm 239 W/m2
11:14 50 °F /  10 °C 47.5 °F /  8.6 °C 29.69in /  1005.3hPa West 4.3mph /  6.9km/h 11mph /  17.7km/h 91% 0.02in /  0.51mm 320 W/m2
11:19 50.3 °F /  10.2 °C 47.7 °F /  8.7 °C 29.69in /  1005.3hPa WSW 4.2mph /  6.8km/h 10mph /  16.1km/h 91% 0.02in /  0.51mm 373 W/m2
11:24 50.5 °F /  10.3 °C 47.9 °F /  8.8 °C 29.69in /  1005.3hPa West 5.7mph /  9.2km/h 12mph /  19.3km/h 91% 0.02in /  0.51mm 332 W/m2
11:29 50.6 °F /  10.3 °C 48.1 °F /  8.9 °C 29.69in /  1005.3hPa West 4.5mph /  7.2km/h 9mph /  14.5km/h 90.9% 0.02in /  0.51mm 320 W/m2
11:34 50.8 °F /  10.4 °C 48.1 °F /  8.9 °C 29.69in /  1005.3hPa West 5.9mph /  9.5km/h 11mph /  17.7km/h 90.4% 0.02in /  0.51mm 369 W/m2
11:39 51.3 °F /  10.7 °C 48.4 °F /  9.1 °C 29.69in /  1005.3hPa West 7.3mph /  11.7km/h 13mph /  20.9km/h 90% 0.02in /  0.51mm 373 W/m2
11:44 51.3 °F /  10.7 °C 48.4 °F /  9.1 °C 29.69in /  1005.3hPa West 6.6mph /  10.6km/h 11mph /  17.7km/h 89.5% 0.01in /  0.25mm 373 W/m2
11:49 51.6 °F /  10.9 °C 48.4 °F /  9.1 °C 29.69in /  1005.3hPa West 6.7mph /  10.8km/h 11mph /  17.7km/h 88.7% 0.01in /  0.25mm 366 W/m2
11:54 51.9 °F /  11.1 °C 48.4 °F /  9.1 °C 29.69in /  1005.3hPa WSW 4.8mph /  7.7km/h 11mph /  17.7km/h 88% 0.01in /  0.25mm 411 W/m2
11:59 52.5 °F /  11.4 °C 48.9 °F /  9.4 °C 29.69in /  1005.3hPa WSW 4.6mph /  7.4km/h 10mph /  16.1km/h 87.6% 0.01in /  0.25mm 438 W/m2
12:04 52.8 °F /  11.6 °C 48.9 °F /  9.4 °C 29.69in /  1005.3hPa WSW 5.2mph /  8.4km/h 10mph /  16.1km/h 86.9% 0.01in /  0.25mm 371 W/m2
12:09 52.7 °F /  11.5 °C 48.6 °F /  9.2 °C 29.69in /  1005.3hPa WSW 6.8mph /  10.9km/h 11mph /  17.7km/h 85.8% 0.00in /  0mm 306 W/m2
12:14 53 °F /  11.7 °C 48.8 °F /  9.3 °C 29.69in /  1005.3hPa WSW 3.9mph /  6.3km/h 11mph /  17.7km/h 85.9% 0.00in /  0mm 332 W/m2
12:19 53 °F /  11.7 °C 48.7 °F /  9.3 °C 29.69in /  1005.3hPa WSW 6.7mph /  10.8km/h 11mph /  17.7km/h 85.1% 0.00in /  0mm 388 W/m2
12:24 53.2 °F /  11.8 °C 48.9 °F /  9.4 °C 29.69in /  1005.3hPa WSW 7.1mph /  11.4km/h 12mph /  19.3km/h 85.3% 0.00in /  0mm 385 W/m2
12:29 53.6 °F /  12 °C 49.4 °F /  9.7 °C 29.69in /  1005.3hPa West 6mph /  9.7km/h 11mph /  17.7km/h 85.7% 0.00in /  0mm 585 W/m2
12:34 53.8 °F /  12.1 °C 49.4 °F /  9.7 °C 29.68in /  1005hPa West 6.8mph /  10.9km/h 11mph /  17.7km/h 85% 0.00in /  0mm 585 W/m2
12:39 54.1 °F /  12.3 °C 49.5 °F /  9.7 °C 29.68in /  1005hPa West 5.7mph /  9.2km/h 11mph /  17.7km/h 84.1% 0.00in /  0mm 401 W/m2
12:44 54.1 °F /  12.3 °C 49.2 °F /  9.6 °C 29.69in /  1005.3hPa WSW 8.8mph /  14.2km/h 15mph /  24.1km/h 83.4% 0.00in /  0mm 369 W/m2
12:49 54 °F /  12.2 °C 48.7 °F /  9.3 °C 29.69in /  1005.3hPa WSW 7.1mph /  11.4km/h 12mph /  19.3km/h 82.4% 0.00in /  0mm 308 W/m2
12:54 54 °F /  12.2 °C 48.6 °F /  9.2 °C 29.69in /  1005.3hPa West 7.1mph /  11.4km/h 14mph /  22.5km/h 82% 0.00in /  0mm 250 W/m2
12:59 54 °F /  12.2 °C 48.7 °F /  9.3 °C 29.69in /  1005.3hPa WSW 5.3mph /  8.5km/h 13mph /  20.9km/h 82.1% 0.00in /  0mm 267 W/m2
13:04 54 °F /  12.2 °C 48.8 °F /  9.3 °C 29.69in /  1005.3hPa West 6.7mph /  10.8km/h 13mph /  20.9km/h 82.4% 0.00in /  0mm 260 W/m2
13:09 54.1 °F /  12.3 °C 48.7 °F /  9.3 °C 29.69in /  1005.3hPa WSW 6.8mph /  10.9km/h 11mph /  17.7km/h 82% 0.00in /  0mm 288 W/m2
13:14 54.3 °F /  12.4 °C 48.9 °F /  9.4 °C 29.69in /  1005.3hPa WSW 6.1mph /  9.8km/h 9mph /  14.5km/h 82% 0.00in /  0mm 278 W/m2
13:19 54.3 °F /  12.4 °C 49 °F /  9.4 °C 29.68in /  1005hPa SW 4.9mph /  7.9km/h 9mph /  14.5km/h 82.2% 0.00in /  0mm 302 W/m2
13:24 54.3 °F /  12.4 °C 49 °F /  9.4 °C 29.68in /  1005hPa SW 5.2mph /  8.4km/h 10mph /  16.1km/h 82.1% 0.00in /  0mm 246 W/m2
13:29 54.5 °F /  12.5 °C 49.4 °F /  9.7 °C 29.69in /  1005.3hPa WSW 5.4mph /  8.7km/h 12mph /  19.3km/h 82.8% 0.00in /  0mm 206 W/m2
13:34 54.4 °F /  12.4 °C 49 °F /  9.4 °C 29.68in /  1005hPa WSW 8.1mph /  13km/h 13mph /  20.9km/h 82% 0.00in /  0mm 165 W/m2
13:39 54.3 °F /  12.4 °C 48.8 °F /  9.3 °C 29.69in /  1005.3hPa SW 7.6mph /  12.2km/h 13mph /  20.9km/h 81.6% 0.00in /  0mm 195 W/m2
13:44 54 °F /  12.2 °C 48.3 °F /  9.1 °C 29.69in /  1005.3hPa WSW 9.9mph /  15.9km/h 16mph /  25.7km/h 81% 0.00in /  0mm 649 W/m2
13:49 54.6 °F /  12.6 °C 49 °F /  9.4 °C 29.69in /  1005.3hPa West 7.3mph /  11.7km/h 14mph /  22.5km/h 81.3% 0.00in /  0mm 649 W/m2
13:54 55.2 °F /  12.9 °C 49 °F /  9.4 °C 29.69in /  1005.3hPa WSW 9.3mph /  15km/h 16mph /  25.7km/h 79.9% 0.00in /  0mm 557 W/m2
13:59 55.3 °F /  12.9 °C 49 °F /  9.4 °C 29.68in /  1005hPa West 7mph /  11.3km/h 16mph /  25.7km/h 79.5% 0.00in /  0mm 571 W/m2
14:04 54.9 °F /  12.7 °C 48.6 °F /  9.2 °C 29.68in /  1005hPa WSW 7.9mph /  12.7km/h 14mph /  22.5km/h 79.2% 0.00in /  0mm 332 W/m2
14:09 54.6 °F /  12.6 °C 48.4 °F /  9.1 °C 29.69in /  1005.3hPa WSW 10mph /  16.1km/h 17mph /  27.4km/h 79.3% 0.00in /  0mm 536 W/m2
14:14 55 °F /  12.8 °C 48.6 °F /  9.2 °C 29.68in /  1005hPa WSW 8.1mph /  13km/h 15mph /  24.1km/h 78.9% 0.00in /  0mm 515 W/m2
14:19 55.2 °F /  12.9 °C 48.4 °F /  9.1 °C 29.69in /  1005.3hPa WSW 8.6mph /  13.8km/h 15mph /  24.1km/h 77.3% 0.00in /  0mm 494 W/m2
14:24 55.7 °F /  13.2 °C 48.3 °F /  9.1 °C 29.69in /  1005.3hPa WSW 7.8mph /  12.6km/h 14mph /  22.5km/h 76.3% 0.00in /  0mm 483 W/m2
14:29 55.1 °F /  12.8 °C 47.8 °F /  8.8 °C 29.69in /  1005.3hPa WSW 8.2mph /  13.2km/h 13mph /  20.9km/h 76.3% 0.00in /  0mm 109 W/m2
14:34 54.7 °F /  12.6 °C 48 °F /  8.9 °C 29.69in /  1005.3hPa SW 7mph /  11.3km/h 12mph /  19.3km/h 78% 0.00in /  0mm 258 W/m2
14:39 54.3 °F /  12.4 °C 48 °F /  8.9 °C 29.69in /  1005.3hPa SW 6.4mph /  10.3km/h 13mph /  20.9km/h 79% 0.00in /  0mm 174 W/m2
14:44 53.8 °F /  12.1 °C 47.7 °F /  8.7 °C 29.70in /  1005.6hPa SW 7.9mph /  12.7km/h 13mph /  20.9km/h 79.5% 0.00in /  0mm 98 W/m2
14:49 53.4 °F /  11.9 °C 47.6 °F /  8.7 °C 29.70in /  1005.6hPa WSW 9.5mph /  15.3km/h 18mph /  29km/h 80.6% 0.00in /  0mm 174 W/m2
14:54 53.1 °F /  11.7 °C 47.8 °F /  8.8 °C 29.70in /  1005.6hPa WSW 7.2mph /  11.6km/h 12mph /  19.3km/h 82.2% 0.00in /  0mm 211 W/m2
14:59 53.2 °F /  11.8 °C 48.1 °F /  8.9 °C 29.70in /  1005.6hPa West 5.6mph /  9km/h 13mph /  20.9km/h 83% 0.00in /  0mm 169 W/m2
15:04 53.1 °F /  11.7 °C 47.9 °F /  8.8 °C 29.70in /  1005.6hPa WSW 9.9mph /  15.9km/h 20mph /  32.2km/h 82.3% 0.00in /  0mm 77 W/m2
15:09 52.8 °F /  11.6 °C 47.8 °F /  8.8 °C 29.70in /  1005.6hPa West 7mph /  11.3km/h 16mph /  25.7km/h 83% 0.01in /  0.25mm 72 W/m2
15:14 52.3 °F /  11.3 °C 47.3 °F /  8.5 °C 29.70in /  1005.6hPa West 8mph /  12.9km/h 16mph /  25.7km/h 83% 0.01in /  0.25mm 67 W/m2
15:19 51.8 °F /  11 °C 47.1 °F /  8.4 °C 29.70in /  1005.6hPa West 8.3mph /  13.4km/h 16mph /  25.7km/h 83.8% 0.01in /  0.25mm 69 W/m2
15:24 51.4 °F /  10.8 °C 46.8 °F /  8.2 °C 29.70in /  1005.6hPa West 7.3mph /  11.7km/h 15mph /  24.1km/h 84.1% 0.02in /  0.51mm 214 W/m2
15:29 51.3 °F /  10.7 °C 46.9 °F /  8.3 °C 29.70in /  1005.6hPa WSW 4.8mph /  7.7km/h 9mph /  14.5km/h 85% 0.02in /  0.51mm 214 W/m2
15:34 51.1 °F /  10.6 °C 47 °F /  8.3 °C 29.70in /  1005.6hPa West 6.6mph /  10.6km/h 14mph /  22.5km/h 85.9% 0.02in /  0.51mm 267 W/m2
15:39 50.8 °F /  10.4 °C 46.8 °F /  8.2 °C 29.70in /  1005.6hPa West 8.3mph /  13.4km/h 15mph /  24.1km/h 86% 0.02in /  0.51mm 195 W/m2
15:44 50.6 °F /  10.3 °C 46.7 °F /  8.2 °C 29.70in /  1005.6hPa West 6mph /  9.7km/h 11mph /  17.7km/h 86% 0.02in /  0.51mm 93 W/m2
15:49 50.4 °F /  10.2 °C 46.4 °F /  8 °C 29.70in /  1005.6hPa West 5.5mph /  8.9km/h 13mph /  20.9km/h 85.9% 0.02in /  0.51mm 65 W/m2
15:54 50.3 °F /  10.2 °C 46 °F /  7.8 °C 29.70in /  1005.6hPa West 6.2mph /  10km/h 11mph /  17.7km/h 85.3% 0.02in /  0.51mm 39 W/m2
15:59 49.9 °F /  9.9 °C 45.9 °F /  7.7 °C 29.70in /  1005.6hPa WNW 5.3mph /  8.5km/h 11mph /  17.7km/h 85.8% 0.02in /  0.51mm 19 W/m2
16:04 49.7 °F /  9.8 °C 45.8 °F /  7.7 °C 29.70in /  1005.6hPa West 2.9mph /  4.7km/h 7mph /  11.3km/h 86% 0.03in /  0.76mm 28 W/m2
16:09 49.6 °F /  9.8 °C 45.8 °F /  7.7 °C 29.70in /  1005.6hPa WSW 4.5mph /  7.2km/h 9mph /  14.5km/h 86.6% 0.04in /  1.02mm 46 W/m2
16:14 49.5 °F /  9.7 °C 45.7 °F /  7.6 °C 29.70in /  1005.6hPa West 5mph /  8km/h 9mph /  14.5km/h 87% 0.04in /  1.02mm 128 W/m2
16:19 49.6 °F /  9.8 °C 45.8 °F /  7.7 °C 29.70in /  1005.6hPa West 4.6mph /  7.4km/h 10mph /  16.1km/h 87% 0.04in /  1.02mm 148 W/m2
16:24 49.6 °F /  9.8 °C 46.2 °F /  7.9 °C 29.69in /  1005.3hPa West 3.2mph /  5.1km/h 10mph /  16.1km/h 88% 0.03in /  0.76mm 141 W/m2
16:29 49.8 °F /  9.9 °C 46.4 °F /  8 °C 29.69in /  1005.3hPa West 4.4mph /  7.1km/h 7mph /  11.3km/h 88% 0.03in /  0.76mm 62 W/m2
16:34 49.8 °F /  9.9 °C 46.4 °F /  8 °C 29.69in /  1005.3hPa WSW 2.3mph /  3.7km/h 7mph /  11.3km/h 88% 0.03in /  0.76mm 63 W/m2
16:39 49.8 °F /  9.9 °C 46.4 °F /  8 °C 29.69in /  1005.3hPa WSW 4.7mph /  7.6km/h 8mph /  12.9km/h 88% 0.03in /  0.76mm 47 W/m2
16:44 49.8 °F /  9.9 °C 46.4 °F /  8 °C 29.69in /  1005.3hPa WSW 2.6mph /  4.2km/h 8mph /  12.9km/h 88% 0.03in /  0.76mm 23 W/m2
16:49 49.8 °F /  9.9 °C 46.4 °F /  8 °C 29.69in /  1005.3hPa WSW 4.6mph /  7.4km/h 15mph /  24.1km/h 88% 0.03in /  0.76mm 18 W/m2
16:54 50 °F /  10 °C 46.6 °F /  8.1 °C 29.69in /  1005.3hPa WSW 6.1mph /  9.8km/h 11mph /  17.7km/h 88% 0.04in /  1.02mm 18 W/m2
16:59 50 °F /  10 °C 46.7 °F /  8.2 °C 29.69in /  1005.3hPa West 6.2mph /  10km/h 10mph /  16.1km/h 88.2% 0.03in /  0.76mm 16 W/m2
17:04 50 °F /  10 °C 46.6 °F /  8.1 °C 29.69in /  1005.3hPa WSW 4.7mph /  7.6km/h 11mph /  17.7km/h 88.1% 0.02in /  0.51mm 18 W/m2
17:09 50 °F /  10 °C 46.7 °F /  8.2 °C 29.69in /  1005.3hPa WSW 5mph /  8km/h 9mph /  14.5km/h 88.3% 0.02in /  0.51mm 11 W/m2
17:14 49.8 °F /  9.9 °C 46.8 °F /  8.2 °C 29.69in /  1005.3hPa WNW 5.6mph /  9km/h 10mph /  16.1km/h 89% 0.03in /  0.76mm 5 W/m2
17:19 49.6 °F /  9.8 °C 46.6 °F /  8.1 °C 29.69in /  1005.3hPa WNW 4.7mph /  7.6km/h 13mph /  20.9km/h 89% 0.06in /  1.52mm 0 W/m2
17:24 49.4 °F /  9.7 °C 46.3 °F /  7.9 °C 29.69in /  1005.3hPa West 4.1mph /  6.6km/h 13mph /  20.9km/h 89% 0.09in /  2.29mm 9 W/m2
17:29 49.2 °F /  9.6 °C 46.3 °F /  7.9 °C 29.68in /  1005hPa WSW 1.8mph /  2.9km/h 9mph /  14.5km/h 90% 0.09in /  2.29mm 9 W/m2
17:34 49.2 °F /  9.6 °C 46.3 °F /  7.9 °C 29.68in /  1005hPa WSW 0.4mph /  0.6km/h 3mph /  4.8km/h 90% 0.10in /  2.54mm 0 W/m2
17:39 49.1 °F /  9.5 °C 46.2 °F /  7.9 °C 29.69in /  1005.3hPa WSW 0.7mph /  1.1km/h 3mph /  4.8km/h 90% 0.10in /  2.54mm 5 W/m2
17:44 49.1 °F /  9.5 °C 46.2 °F /  7.9 °C 29.69in /  1005.3hPa WSW 1.6mph /  2.6km/h 4mph /  6.4km/h 90% 0.11in /  2.79mm 9 W/m2
17:49 49.1 °F /  9.5 °C 46.2 °F /  7.9 °C 29.69in /  1005.3hPa West 1.8mph /  2.9km/h 6mph /  9.7km/h 90.1% 0.12in /  3.05mm 18 W/m2
17:54 49.1 °F /  9.5 °C 46.6 °F /  8.1 °C 29.69in /  1005.3hPa West 0.8mph /  1.3km/h 6mph /  9.7km/h 91% 0.11in /  2.79mm 21 W/m2
17:59 49.2 °F /  9.6 °C 46.7 °F /  8.2 °C 29.69in /  1005.3hPa West 1mph /  1.6km/h 3mph /  4.8km/h 91% 0.11in /  2.79mm 16 W/m2
18:04 49.2 °F /  9.6 °C 46.7 °F /  8.2 °C 29.69in /  1005.3hPa West 0.7mph /  1.1km/h 3mph /  4.8km/h 91% 0.11in /  2.79mm 35 W/m2
18:09 49.3 °F /  9.6 °C 46.8 °F /  8.2 °C 29.69in /  1005.3hPa West 0.6mph /  1km/h 3mph /  4.8km/h 91% 0.10in /  2.54mm 35 W/m2
18:14 49.3 °F /  9.6 °C 46.9 °F /  8.3 °C 29.69in /  1005.3hPa West 0.1mph /  0.2km/h 2mph /  3.2km/h 91.3% 0.09in /  2.29mm 23 W/m2
18:19 49.5 °F /  9.7 °C 47.3 °F /  8.5 °C 29.69in /  1005.3hPa West 2.1mph /  3.4km/h 7mph /  11.3km/h 92% 0.09in /  2.29mm 11 W/m2
18:24 49.5 °F /  9.7 °C 47.3 °F /  8.5 °C 29.69in /  1005.3hPa West 2.1mph /  3.4km/h 7mph /  11.3km/h 92% 0.05in /  1.27mm 5 W/m2
18:29 49.5 °F /  9.7 °C 47.3 °F /  8.5 °C 29.69in /  1005.3hPa West 2.5mph /  4km/h 7mph /  11.3km/h 92% 0.03in /  0.76mm 5 W/m2
18:34 49.2 °F /  9.6 °C 47 °F /  8.3 °C 29.69in /  1005.3hPa West 2.9mph /  4.7km/h 7mph /  11.3km/h 92% 0.03in /  0.76mm 0 W/m2
18:39 49.1 °F /  9.5 °C 46.9 °F /  8.3 °C 29.69in /  1005.3hPa West 2.9mph /  4.7km/h 7mph /  11.3km/h 92% 0.02in /  0.51mm 0 W/m2
18:44 48.9 °F /  9.4 °C 46.4 °F /  8 °C 29.68in /  1005hPa West 2.1mph /  3.4km/h 7mph /  11.3km/h 91% 0.02in /  0.51mm 0 W/m2
18:49 48.9 °F /  9.4 °C 46.4 °F /  8 °C 29.68in /  1005hPa West 0.3mph /  0.5km/h 5mph /  8km/h 91% 0.01in /  0.25mm 0 W/m2
18:54 48.9 °F /  9.4 °C 46.4 °F /  8 °C 29.68in /  1005hPa West 0.2mph /  0.3km/h 2mph /  3.2km/h 91% 0.01in /  0.25mm 0 W/m2
18:59 48.9 °F /  9.4 °C 46.4 °F /  8 °C 29.69in /  1005.3hPa West 0.9mph /  1.4km/h 4mph /  6.4km/h 91% 0.01in /  0.25mm 0 W/m2
19:04 48.9 °F /  9.4 °C 46.4 °F /  8 °C 29.69in /  1005.3hPa West 1.6mph /  2.6km/h 5mph /  8km/h 91% 0.01in /  0.25mm 0 W/m2
19:09 48.8 °F /  9.3 °C 46.3 °F /  7.9 °C 29.70in /  1005.6hPa West 4.4mph /  7.1km/h 10mph /  16.1km/h 91% 0.01in /  0.25mm 0 W/m2
19:14 48.7 °F /  9.3 °C 46.2 °F /  7.9 °C 29.70in /  1005.6hPa West 2.3mph /  3.7km/h 7mph /  11.3km/h 91% 0.03in /  0.76mm 0 W/m2
19:19 48.7 °F /  9.3 °C 46.2 °F /  7.9 °C 29.70in /  1005.6hPa West 2.2mph /  3.5km/h 9mph /  14.5km/h 91% 0.04in /  1.02mm 0 W/m2
19:24 48.6 °F /  9.2 °C 46 °F /  7.8 °C 29.70in /  1005.6hPa West 1.1mph /  1.8km/h 9mph /  14.5km/h 91% 0.05in /  1.27mm 0 W/m2
19:29 48.6 °F /  9.2 °C 46 °F /  7.8 °C 29.70in /  1005.6hPa West 0.9mph /  1.4km/h 5mph /  8km/h 91% 0.04in /  1.02mm 0 W/m2
19:34 48.6 °F /  9.2 °C 46 °F /  7.8 °C 29.70in /  1005.6hPa WSW 0.6mph /  1km/h 3mph /  4.8km/h 91% 0.04in /  1.02mm 0 W/m2
19:39 48.6 °F /  9.2 °C 46 °F /  7.8 °C 29.70in /  1005.6hPa WSW 0.2mph /  0.3km/h 3mph /  4.8km/h 91% 0.04in /  1.02mm 0 W/m2
19:44 48.6 °F /  9.2 °C 46 °F /  7.8 °C 29.70in /  1005.6hPa WSW 0.6mph /  1km/h 3mph /  4.8km/h 91% 0.05in /  1.27mm 0 W/m2
19:49 48.6 °F /  9.2 °C 46 °F /  7.8 °C 29.71in /  1006hPa WSW 2mph /  3.2km/h 5mph /  8km/h 91% 0.07in /  1.78mm 0 W/m2
19:54 48.5 °F /  9.2 °C 46.1 °F /  7.8 °C 29.71in /  1006hPa West 3.8mph /  6.1km/h 8mph /  12.9km/h 91.5% 0.09in /  2.29mm 0 W/m2
19:59 48.3 °F /  9.1 °C 46.1 °F /  7.8 °C 29.70in /  1005.6hPa WNW 1.6mph /  2.6km/h 7mph /  11.3km/h 92% 0.09in /  2.29mm 0 W/m2
20:04 48.3 °F /  9.1 °C 46.1 °F /  7.8 °C 29.70in /  1005.6hPa WNW 2mph /  3.2km/h 5mph /  8km/h 92% 0.09in /  2.29mm 0 W/m2
20:09 48.4 °F /  9.1 °C 46.2 °F /  7.9 °C 29.70in /  1005.6hPa WNW 1.8mph /  2.9km/h 5mph /  8km/h 92% 0.10in /  2.54mm 0 W/m2
20:14 48.4 °F /  9.1 °C 46.2 °F /  7.9 °C 29.71in /  1006hPa WNW 1mph /  1.6km/h 3mph /  4.8km/h 92% 0.09in /  2.29mm 0 W/m2
20:19 48.4 °F /  9.1 °C 46.2 °F /  7.9 °C 29.71in /  1006hPa WNW 0.7mph /  1.1km/h 4mph /  6.4km/h 92% 0.07in /  1.78mm 0 W/m2
20:24 48.4 °F /  9.1 °C 46.2 °F /  7.9 °C 29.70in /  1005.6hPa WNW 0.2mph /  0.3km/h 1mph /  1.6km/h 92% 0.07in /  1.78mm 0 W/m2
20:29 48.4 °F /  9.1 °C 46.2 °F /  7.9 °C 29.70in /  1005.6hPa WNW 0.1mph /  0.2km/h 1mph /  1.6km/h 92% 0.06in /  1.52mm 0 W/m2
20:34 48.4 °F /  9.1 °C 46.2 °F /  7.9 °C 29.71in /  1006hPa WNW 0.1mph /  0.2km/h 1mph /  1.6km/h 92% 0.06in /  1.52mm 0 W/m2
20:39 48.3 °F /  9.1 °C 46.1 °F /  7.8 °C 29.71in /  1006hPa Calm   1mph /  1.6km/h 92% 0.06in /  1.52mm 0 W/m2
20:44 48.2 °F /  9 °C 46 °F /  7.8 °C 29.71in /  1006hPa WNW 0.5mph /  0.8km/h 2mph /  3.2km/h 92% 0.06in /  1.52mm 0 W/m2
20:49 48.2 °F /  9 °C 46 °F /  7.8 °C 29.71in /  1006hPa WNW 0.1mph /  0.2km/h 2mph /  3.2km/h 92% 0.06in /  1.52mm 0 W/m2
20:54 48.2 °F /  9 °C 46 °F /  7.8 °C 29.71in /  1006hPa WNW 0.6mph /  1km/h 2mph /  3.2km/h 92% 0.02in /  0.51mm 0 W/m2
20:59 48 °F /  8.9 °C 45.9 °F /  7.7 °C 29.71in /  1006hPa Calm   1mph /  1.6km/h 92% 0.01in /  0.25mm 0 W/m2
21:04 48 °F /  8.9 °C 45.9 °F /  7.7 °C 29.72in /  1006.3hPa WNW 1.4mph /  2.3km/h 4mph /  6.4km/h 92% 0.01in /  0.25mm 0 W/m2
21:09 47.9 °F /  8.8 °C 45.8 °F /  7.7 °C 29.72in /  1006.3hPa WNW 0.8mph /  1.3km/h 4mph /  6.4km/h 92% 0.00in /  0mm 0 W/m2
21:14 47.8 °F /  8.8 °C 45.7 °F /  7.6 °C 29.72in /  1006.3hPa WNW 1.2mph /  1.9km/h 4mph /  6.4km/h 92% 0.00in /  0mm 0 W/m2
21:19 47.7 °F /  8.7 °C 45.5 °F /  7.5 °C 29.72in /  1006.3hPa WNW 1.3mph /  2.1km/h 4mph /  6.4km/h 92% 0.00in /  0mm 0 W/m2
21:24 47.5 °F /  8.6 °C 45.3 °F /  7.4 °C 29.72in /  1006.3hPa WNW 0.4mph /  0.6km/h 2mph /  3.2km/h 92% 0.00in /  0mm 0 W/m2
21:29 47.3 °F /  8.5 °C 45.1 °F /  7.3 °C 29.72in /  1006.3hPa WNW 0.3mph /  0.5km/h 2mph /  3.2km/h 92% 0.00in /  0mm 0 W/m2
21:34 47.1 °F /  8.4 °C 45 °F /  7.2 °C 29.72in /  1006.3hPa WNW 0.8mph /  1.3km/h 2mph /  3.2km/h 92% 0.00in /  0mm 0 W/m2
21:39 46.9 °F /  8.3 °C 44.8 °F /  7.1 °C 29.72in /  1006.3hPa WNW 1.1mph /  1.8km/h 2mph /  3.2km/h 92% 0.00in /  0mm 0 W/m2
21:44 46.9 °F /  8.3 °C 44.8 °F /  7.1 °C 29.72in /  1006.3hPa WNW 0.9mph /  1.4km/h 2mph /  3.2km/h 92% 0.00in /  0mm 0 W/m2
21:49 46.8 °F /  8.2 °C 44.7 °F /  7.1 °C 29.73in /  1006.7hPa WNW 0.9mph /  1.4km/h 2mph /  3.2km/h 92.4% 0.00in /  0mm 0 W/m2
21:54 46.8 °F /  8.2 °C 44.8 °F /  7.1 °C 29.73in /  1006.7hPa WNW 0.6mph /  1km/h 2mph /  3.2km/h 93% 0.00in /  0mm 0 W/m2
21:59 46.7 °F /  8.2 °C 44.7 °F /  7.1 °C 29.73in /  1006.7hPa WNW 1mph /  1.6km/h 2mph /  3.2km/h 93% 0.00in /  0mm 0 W/m2
22:04 46.7 °F /  8.2 °C 44.7 °F /  7.1 °C 29.73in /  1006.7hPa WNW 1.2mph /  1.9km/h 4mph /  6.4km/h 93% 0.00in /  0mm 0 W/m2
22:09 46.6 °F /  8.1 °C 44.6 °F /  7 °C 29.73in /  1006.7hPa Calm   1mph /  1.6km/h 93% 0.00in /  0mm 0 W/m2
22:14 46.4 °F /  8 °C 44.4 °F /  6.9 °C 29.73in /  1006.7hPa Calm     93% 0.00in /  0mm 0 W/m2
22:19 46.2 °F /  7.9 °C 44.2 °F /  6.8 °C 29.73in /  1006.7hPa Calm     93% 0.00in /  0mm 0 W/m2
22:24 46.2 °F /  7.9 °C 44.2 °F /  6.8 °C 29.73in /  1006.7hPa WNW 0.2mph /  0.3km/h 1mph /  1.6km/h 93% 0.00in /  0mm 0 W/m2
22:29 46 °F /  7.8 °C 44.1 °F /  6.7 °C 29.73in /  1006.7hPa WNW 0.6mph /  1km/h 2mph /  3.2km/h 93% 0.00in /  0mm 0 W/m2
22:34 45.9 °F /  7.7 °C 43.9 °F /  6.6 °C 29.74in /  1007hPa Calm   2mph /  3.2km/h 93% 0.00in /  0mm 0 W/m2
22:39 45.8 °F /  7.7 °C 43.8 °F /  6.6 °C 29.74in /  1007hPa Calm   1mph /  1.6km/h 93% 0.00in /  0mm 0 W/m2
22:44 45.5 °F /  7.5 °C 43.5 °F /  6.4 °C 29.74in /  1007hPa WNW 0.6mph /  1km/h 2mph /  3.2km/h 93% 0.00in /  0mm 0 W/m2
22:49 45.7 °F /  7.6 °C 43.7 °F /  6.5 °C 29.74in /  1007hPa WNW 1mph /  1.6km/h 5mph /  8km/h 93% 0.00in /  0mm 0 W/m2
22:54 45.9 °F /  7.7 °C 43.9 °F /  6.6 °C 29.74in /  1007hPa WNW 1.6mph /  2.6km/h 5mph /  8km/h 93% 0.00in /  0mm 0 W/m2
22:59 46 °F /  7.8 °C 44 °F /  6.7 °C 29.74in /  1007hPa WNW 2.3mph /  3.7km/h 6mph /  9.7km/h 93% 0.00in /  0mm 0 W/m2
23:04 46.1 °F /  7.8 °C 44.4 °F /  6.9 °C 29.74in /  1007hPa WNW 2.3mph /  3.7km/h 5mph /  8km/h 93.5% 0.00in /  0mm 0 W/m2
23:09 46.2 °F /  7.9 °C 44.5 °F /  6.9 °C 29.74in /  1007hPa WNW 2.2mph /  3.5km/h 5mph /  8km/h 93.9% 0.00in /  0mm 0 W/m2
23:14 46.3 °F /  7.9 °C 44.7 °F /  7.1 °C 29.75in /  1007.3hPa WNW 2.3mph /  3.7km/h 4mph /  6.4km/h 94% 0.00in /  0mm 0 W/m2
23:19 46.4 °F /  8 °C 44.8 °F /  7.1 °C 29.75in /  1007.3hPa WNW 2.7mph /  4.3km/h 5mph /  8km/h 94% 0.00in /  0mm 0 W/m2
23:24 46.6 °F /  8.1 °C 45 °F /  7.2 °C 29.75in /  1007.3hPa WNW 2.7mph /  4.3km/h 5mph /  8km/h 94% 0.00in /  0mm 0 W/m2
23:29 46.7 °F /  8.2 °C 45.1 °F /  7.3 °C 29.75in /  1007.3hPa NW 3.4mph /  5.5km/h 8mph /  12.9km/h 94% 0.00in /  0mm 0 W/m2
23:34 46.8 °F /  8.2 °C 45.2 °F /  7.3 °C 29.75in /  1007.3hPa NW 5mph /  8km/h 9mph /  14.5km/h 94% 0.00in /  0mm 0 W/m2
23:39 46.9 °F /  8.3 °C 45.3 °F /  7.4 °C 29.76in /  1007.7hPa NW 4.3mph /  6.9km/h 9mph /  14.5km/h 94% 0.00in /  0mm 0 W/m2
23:44 46.9 °F /  8.3 °C 45.3 °F /  7.4 °C 29.76in /  1007.7hPa WNW 4.3mph /  6.9km/h 8mph /  12.9km/h 94% 0.00in /  0mm 0 W/m2
23:49 46.9 °F /  8.3 °C 45.3 °F /  7.4 °C 29.76in /  1007.7hPa NW 3.4mph /  5.5km/h 8mph /  12.9km/h 94% 0.00in /  0mm 0 W/m2
23:54 46.9 °F /  8.3 °C 45.2 °F /  7.3 °C 29.76in /  1007.7hPa NW 3.6mph /  5.8km/h 7mph /  11.3km/h 93.7% 0.00in /  0mm 0 W/m2
23:59 46.8 °F /  8.2 °C 45 °F /  7.2 °C 29.76in /  1007.7hPa NW 3.2mph /  5.1km/h 7mph /  11.3km/h 93.5% 0.00in /  0mm 0 W/m2
Bath Spa Weather
Compliments of Weather Underground - 2 mb